Time;durP1;ratioP1;P1;durP2;ratioP2;P2;SDS_P1;SDS_P2;PMS_P1;PMS_P2;Temp;Humidity;BMP_temperature;BMP_pressure;BME280_temperature;BME280_humidity;BME280_pressure;Samples;Min_cycle;Max_cycle;Signal;HPM_P1;HPM_P2
2023/04/26 00:00:13;;;;;;;19.05;8.48;;;12.10;87.50;;;;;;7377642;19;20338;-73
2023/04/26 00:02:42;;;;;;;26.75;10.65;;;12.10;87.40;;;;;;7377838;19;20015;-74
2023/04/26 00:05:11;;;;;;;16.27;8.68;;;12.10;87.10;;;;;;7378091;19;20095;-73
2023/04/26 00:07:42;;;;;;;22.23;9.25;;;12.10;87.60;;;;;;7377811;19;20006;-74
2023/04/26 00:10:12;;;;;;;23.60;9.02;;;12.10;87.90;;;;;;7399028;19;20058;-73
2023/04/26 00:12:42;;;;;;;23.05;9.40;;;12.10;88.30;;;;;;7383526;19;19999;-73
2023/04/26 00:15:11;;;;;;;24.65;9.93;;;12.10;88.10;;;;;;7383647;19;20472;-74
2023/04/26 00:17:41;;;;;;;20.58;9.27;;;12.00;88.30;;;;;;7384541;19;20020;-74
2023/04/26 00:20:12;;;;;;;24.73;9.95;;;12.10;88.10;;;;;;7384710;19;20010;-74
2023/04/26 00:22:43;;;;;;;21.98;8.48;;;12.10;87.60;;;;;;7382292;19;20248;-74
2023/04/26 00:25:12;;;;;;;;;;;12.00;87.90;;;;;;7406781;19;20244;-73
2023/04/26 00:27:41;;;;;;;19.50;8.18;;;12.00;88.20;;;;;;7383808;19;19915;-74
2023/04/26 00:30:11;;;;;;;17.38;8.20;;;12.00;88.10;;;;;;7384141;19;20007;-74
2023/04/26 00:32:40;;;;;;;16.77;8.13;;;11.90;88.10;;;;;;7384287;19;20003;-74
2023/04/26 00:35:10;;;;;;;18.85;8.40;;;11.90;87.90;;;;;;7385694;19;20566;-74
2023/04/26 00:37:39;;;;;;;30.17;9.05;;;11.90;88.10;;;;;;7383793;19;20178;-73
2023/04/26 00:40:12;;;;;;;25.08;8.73;;;11.90;88.00;;;;;;7405699;19;20010;-74
2023/04/26 00:42:41;;;;;;;22.42;8.50;;;11.90;87.90;;;;;;7383374;19;20019;-74
2023/04/26 00:45:11;;;;;;;24.50;7.57;;;11.90;88.20;;;;;;7383485;19;20286;-73
2023/04/26 00:47:39;;;;;;;17.45;7.45;;;11.90;88.00;;;;;;7383554;19;20031;-74
2023/04/26 00:50:09;;;;;;;19.45;7.65;;;11.90;88.10;;;;;;7381916;19;20007;-74
2023/04/26 00:52:39;;;;;;;19.30;8.10;;;11.90;88.10;;;;;;7381714;19;20011;-73
2023/04/26 00:55:11;;;;;;;18.63;7.93;;;11.90;88.10;;;;;;7402821;19;20472;-74
2023/04/26 00:57:41;;;;;;;21.52;8.32;;;11.90;87.70;;;;;;7383234;19;20078;-74
2023/04/26 01:00:11;;;;;;;21.42;8.48;;;11.80;87.80;;;;;;7383129;19;19998;-74
2023/04/26 01:02:41;;;;;;;15.93;7.30;;;11.80;88.10;;;;;;7382350;19;20266;-74
2023/04/26 01:05:10;;;;;;;15.52;7.70;;;11.80;87.90;;;;;;7383545;19;20042;-74
2023/04/26 01:07:40;;;;;;;14.73;7.30;;;11.80;88.10;;;;;;7383344;19;19999;-74
2023/04/26 01:10:12;;;;;;;18.55;8.80;;;11.70;87.80;;;;;;7405206;19;20020;-74
2023/04/26 01:12:41;;;;;;;16.88;7.57;;;11.70;88.30;;;;;;7383271;19;20093;-74
2023/04/26 01:15:12;;;;;;;20.13;9.15;;;11.70;88.30;;;;;;7383315;19;20009;-74
2023/04/26 01:17:43;;;;;;;23.35;9.43;;;11.70;88.10;;;;;;7383264;19;20005;-73
2023/04/26 01:20:12;;;;;;;22.85;8.75;;;11.70;88.20;;;;;;7383290;19;20106;-73
2023/04/26 01:22:43;;;;;;;18.02;7.63;;;11.70;88.30;;;;;;7379895;19;20014;-74
2023/04/26 01:25:13;;;;;;;24.10;8.70;;;11.60;87.70;;;;;;7404484;19;20010;-73
2023/04/26 01:27:42;;;;;;;23.40;9.05;;;11.60;88.00;;;;;;7381689;19;20013;-73
2023/04/26 01:30:12;;;;;;;18.85;9.45;;;11.50;88.00;;;;;;7382881;19;20020;-73
2023/04/26 01:32:40;;;;;;;18.02;9.35;;;11.50;88.20;;;;;;7381149;19;20387;-73
2023/04/26 01:35:10;;;;;;;19.48;9.07;;;11.50;88.30;;;;;;7381164;19;20003;-73
2023/04/26 01:37:38;;;;;;;16.35;8.98;;;11.40;89.30;;;;;;7381823;19;20062;-73
2023/04/26 01:40:11;;;;;;;17.20;8.18;;;11.40;88.40;;;;;;7401254;19;20014;-73
2023/04/26 01:42:40;;;;;;;21.77;8.60;;;11.40;88.40;;;;;;7381334;19;20006;-74
2023/04/26 01:45:09;;;;;;;20.50;8.82;;;11.40;88.30;;;;;;7381699;19;20240;-73
2023/04/26 01:47:38;;;;;;;20.33;8.55;;;11.30;88.00;;;;;;7381595;19;20070;-74
2023/04/26 01:50:09;;;;;;;19.92;8.32;;;11.30;87.80;;;;;;7380202;19;20365;-74
2023/04/26 01:52:38;;;;;;;21.40;8.93;;;11.20;88.10;;;;;;7380909;19;20010;-73
2023/04/26 01:55:10;;;;;;;19.58;8.73;;;11.20;88.30;;;;;;7403125;19;20011;-73
2023/04/26 01:57:39;;;;;;;23.00;8.77;;;11.20;88.50;;;;;;7380775;19;20019;-73
2023/04/26 02:00:10;;;;;;;25.45;8.18;;;11.20;88.70;;;;;;7380696;19;20020;-73
2023/04/26 02:02:39;;;;;;;22.85;9.20;;;11.20;88.30;;;;;;7381233;19;20024;-73
2023/04/26 02:05:10;;;;;;;19.33;7.70;;;11.30;87.90;;;;;;7381430;19;20126;-73
2023/04/26 02:07:39;;;;;;;25.48;8.77;;;11.30;88.00;;;;;;7381129;19;20003;-74
2023/04/26 02:10:11;;;;;;;19.45;9.15;;;11.30;87.80;;;;;;7400622;19;20583;-74
2023/04/26 02:12:40;;;;;;;21.13;9.13;;;11.30;87.80;;;;;;7378556;19;20236;-74
2023/04/26 02:15:11;;;;;;;24.80;9.20;;;11.40;87.80;;;;;;7380405;19;20003;-73
2023/04/26 02:17:40;;;;;;;24.45;9.35;;;11.40;88.00;;;;;;7380746;19;20067;-73
2023/04/26 02:20:11;;;;;;;18.02;8.48;;;11.30;87.70;;;;;;7379961;19;20011;-73
2023/04/26 02:22:39;;;;;;;25.17;8.53;;;11.40;87.70;;;;;;7379289;19;20022;-73
2023/04/26 02:25:14;;;;;;;;;;;11.40;87.80;;;;;;7401046;19;20688;-73
2023/04/26 02:27:43;;;;;;;21.42;9.18;;;11.30;87.80;;;;;;7383243;19;19907;-73
2023/04/26 02:30:12;;;;;;;23.48;8.52;;;11.30;87.60;;;;;;7380545;19;20373;-73
2023/04/26 02:32:41;;;;;;;20.10;8.98;;;11.30;87.80;;;;;;7379784;19;20412;-73
2023/04/26 02:35:11;;;;;;;26.73;10.00;;;11.30;88.30;;;;;;7379819;19;20473;-74
2023/04/26 02:37:39;;;;;;;22.58;9.13;;;11.30;88.60;;;;;;7379011;19;20062;-73
2023/04/26 02:40:10;;;;;;;15.70;9.20;;;11.30;88.60;;;;;;7402568;19;20020;-73
2023/04/26 02:42:41;;;;;;;20.55;9.20;;;11.30;88.50;;;;;;7379965;19;20024;-73
2023/04/26 02:45:11;;;;;;;22.17;9.18;;;11.30;88.40;;;;;;7379804;19;20006;-73
2023/04/26 02:47:39;;;;;;;18.00;9.07;;;11.30;88.70;;;;;;7379712;19;20007;-73
2023/04/26 02:50:10;;;;;;;22.60;8.80;;;11.30;88.70;;;;;;7379458;19;20162;-73
2023/04/26 02:52:39;;;;;;;28.05;9.05;;;11.40;88.70;;;;;;7378133;19;20011;-73
2023/04/26 02:55:09;;;;;;;22.10;8.82;;;11.40;88.70;;;;;;7401248;19;20078;-73
2023/04/26 02:57:40;;;;;;;19.77;9.07;;;11.40;88.30;;;;;;7378821;19;20396;-73
2023/04/26 03:00:12;;;;;;;21.27;8.60;;;11.40;88.40;;;;;;7379272;19;20361;-73
2023/04/26 03:02:41;;;;;;;15.50;8.07;;;11.40;88.30;;;;;;7379295;19;20239;-74
2023/04/26 03:05:11;;;;;;;17.38;9.15;;;11.40;88.40;;;;;;7378899;19;20575;-73
2023/04/26 03:07:39;;;;;;;20.42;8.95;;;11.40;88.60;;;;;;7377580;19;20017;-74
2023/04/26 03:10:09;;;;;;;21.67;8.77;;;11.40;88.40;;;;;;7398501;19;20078;-74
2023/04/26 03:12:41;;;;;;;20.80;9.55;;;11.40;88.60;;;;;;7377139;19;20003;-74
2023/04/26 03:15:10;;;;;;;19.75;9.25;;;11.40;88.80;;;;;;7378836;19;20331;-74
2023/04/26 03:17:39;;;;;;;20.17;8.45;;;11.50;88.70;;;;;;7379373;19;20027;-74
2023/04/26 03:20:09;;;;;;;18.13;8.65;;;11.40;88.70;;;;;;7379401;19;20016;-74
2023/04/26 03:22:38;;;;;;;18.50;9.37;;;11.40;88.70;;;;;;7378052;19;20011;-74
2023/04/26 03:25:08;;;;;;;22.13;10.00;;;11.40;88.90;;;;;;7400256;19;20011;-73
2023/04/26 03:27:37;;;;;;;21.25;8.73;;;11.50;89.00;;;;;;7378277;19;20090;-73
2023/04/26 03:30:12;;;;;;;18.95;8.82;;;11.50;88.80;;;;;;7378291;19;20006;-74
2023/04/26 03:32:40;;;;;;;23.40;9.65;;;11.50;89.10;;;;;;7378180;19;20074;-73
2023/04/26 03:35:10;;;;;;;25.00;9.73;;;11.50;89.10;;;;;;7379434;19;20006;-73
2023/04/26 03:37:40;;;;;;;16.15;9.00;;;11.50;89.20;;;;;;7378358;19;20059;-72
2023/04/26 03:40:10;;;;;;;18.60;9.00;;;11.50;89.10;;;;;;7399252;19;20383;-72
2023/04/26 03:42:39;;;;;;;30.98;9.45;;;11.50;89.30;;;;;;7377805;19;20059;-73
2023/04/26 03:45:12;;;;;;;19.88;8.52;;;11.50;89.60;;;;;;7377866;19;20011;-73
2023/04/26 03:47:40;;;;;;;21.98;9.32;;;11.50;89.60;;;;;;7385024;19;20070;-73
2023/04/26 03:50:10;;;;;;;35.10;10.70;;;11.50;89.70;;;;;;7385598;19;20365;-73
2023/04/26 03:52:41;;;;;;;22.20;9.32;;;11.50;89.80;;;;;;7384635;19;20231;-74
2023/04/26 03:55:10;;;;;;;20.77;9.07;;;11.50;89.90;;;;;;7408501;19;20349;-73
2023/04/26 03:57:39;;;;;;;21.52;9.15;;;11.50;90.00;;;;;;7386233;19;20010;-73
2023/04/26 04:00:14;;;;;;;20.23;9.88;;;11.50;90.00;;;;;;7385298;19;20342;-74
2023/04/26 04:02:43;;;;;;;19.50;9.23;;;11.50;90.00;;;;;;7385636;19;20007;-73
2023/04/26 04:05:11;;;;;;;31.08;11.43;;;11.50;89.90;;;;;;7385129;19;20023;-73
2023/04/26 04:07:40;;;;;;;17.20;9.48;;;11.60;90.00;;;;;;7382953;19;20023;-73
2023/04/26 04:10:10;;;;;;;22.42;9.75;;;11.50;90.00;;;;;;7406795;19;20017;-73
2023/04/26 04:12:39;;;;;;;25.10;9.27;;;11.50;90.00;;;;;;7382751;19;20013;-73
2023/04/26 04:15:12;;;;;;;23.15;9.38;;;11.50;90.00;;;;;;7385021;19;20014;-73
2023/04/26 04:17:40;;;;;;;19.38;9.20;;;11.50;90.00;;;;;;7385011;19;20314;-73
2023/04/26 04:20:10;;;;;;;21.30;8.65;;;11.50;90.00;;;;;;7387437;19;20011;-74
2023/04/26 04:22:40;;;;;;;19.02;8.55;;;11.50;90.10;;;;;;7382991;19;20006;-73
2023/04/26 04:25:09;;;;;;;18.17;8.48;;;11.50;90.00;;;;;;7407088;19;20010;-73
2023/04/26 04:27:38;;;;;;;15.70;7.93;;;11.50;90.20;;;;;;7385229;19;20062;-73
2023/04/26 04:30:08;;;;;;;21.50;8.95;;;11.60;90.10;;;;;;7385243;19;20023;-73
2023/04/26 04:32:43;;;;;;;20.65;8.98;;;11.60;90.00;;;;;;7384784;19;20013;-74
2023/04/26 04:35:12;;;;;;;20.98;8.93;;;11.60;89.90;;;;;;7385040;19;20267;-73
2023/04/26 04:37:42;;;;;;;22.88;8.05;;;11.60;89.60;;;;;;7384911;19;20067;-73
2023/04/26 04:40:14;;;;;;;18.40;7.65;;;11.60;90.00;;;;;;7406522;19;20010;-73
2023/04/26 04:42:43;;;;;;;21.77;9.38;;;11.60;90.00;;;;;;7384632;19;20006;-73
2023/04/26 04:45:13;;;;;;;21.35;9.45;;;11.70;90.00;;;;;;7384220;19;20002;-73
2023/04/26 04:47:44;;;;;;;21.90;9.15;;;11.70;90.10;;;;;;7383367;19;20002;-73
2023/04/26 04:50:13;;;;;;;22.90;8.95;;;11.60;90.30;;;;;;7384922;19;20028;-73
2023/04/26 04:52:42;;;;;;;17.50;9.00;;;11.60;90.30;;;;;;7383477;19;20368;-73
2023/04/26 04:55:11;;;;;;;21.20;9.07;;;11.60;90.30;;;;;;7403477;19;20563;-74
2023/04/26 04:57:40;;;;;;;20.52;9.23;;;11.60;90.30;;;;;;7382455;19;20014;-73
2023/04/26 05:00:11;;;;;;;19.35;9.23;;;11.60;90.60;;;;;;7383039;19;20002;-74
2023/04/26 05:02:40;;;;;;;25.80;9.17;;;11.60;90.60;;;;;;7383587;19;20020;-74
2023/04/26 05:05:12;;;;;;;18.55;9.05;;;11.60;90.50;;;;;;7382632;19;20502;-73
2023/04/26 05:07:41;;;;;;;21.70;8.85;;;11.60;90.60;;;;;;7383047;19;20565;-73
2023/04/26 05:10:10;;;;;;;18.25;8.95;;;11.60;90.50;;;;;;7402462;19;20028;-73
2023/04/26 05:12:39;;;;;;;19.38;9.35;;;11.60;90.60;;;;;;7381166;19;20002;-74
2023/04/26 05:15:11;;;;;;;18.92;8.70;;;11.60;90.60;;;;;;7382671;19;20082;-73
2023/04/26 05:17:39;;;;;;;19.73;9.20;;;11.60;90.60;;;;;;7383048;19;20007;-74
2023/04/26 05:20:13;;;;;;;17.70;9.68;;;11.60;90.60;;;;;;7382656;19;20011;-74
2023/04/26 05:22:42;;;;;;;18.73;9.15;;;11.60;90.70;;;;;;7381422;19;20011;-74
2023/04/26 05:25:12;;;;;;;25.45;8.55;;;11.70;91.30;;;;;;7403653;19;20673;-74
2023/04/26 05:27:41;;;;;;;18.90;9.35;;;11.70;91.00;;;;;;7381885;19;20013;-74
2023/04/26 05:30:11;;;;;;;19.88;9.07;;;11.70;91.00;;;;;;7382477;19;20346;-74
2023/04/26 05:32:40;;;;;;;22.75;9.10;;;11.70;90.90;;;;;;7381427;19;20010;-74
2023/04/26 05:35:12;;;;;;;15.80;9.13;;;11.80;90.80;;;;;;7383031;19;20030;-75
2023/04/26 05:37:41;;;;;;;22.60;9.45;;;11.80;90.90;;;;;;7379733;19;20014;-74
2023/04/26 05:40:11;;;;;;;20.23;9.75;;;11.80;91.00;;;;;;7401428;19;20009;-74
2023/04/26 05:42:46;;;;;;;19.25;9.45;;;11.90;91.00;;;;;;7381567;19;19999;-80
2023/04/26 05:45:15;;;;;;;16.77;9.18;;;11.90;91.00;;;;;;7381696;19;20314;-76
2023/04/26 05:47:46;;;;;;;17.73;9.48;;;11.90;90.80;;;;;;7381884;19;20003;-76
2023/04/26 05:50:17;;;;;;;19.58;9.10;;;11.90;90.70;;;;;;7382207;19;20006;-75
2023/04/26 05:52:46;;;;;;;;;;;12.00;90.60;;;;;;7382525;19;20006;-75
2023/04/26 05:55:14;;;;;;;17.48;9.35;;;12.00;90.60;;;;;;7403449;19;19914;-75
2023/04/26 05:57:43;;;;;;;17.10;10.20;;;12.10;90.60;;;;;;7380812;19;20010;-74
2023/04/26 06:00:14;;;;;;;21.10;10.18;;;12.10;90.60;;;;;;7381317;19;20068;-74
2023/04/26 06:02:43;;;;;;;16.95;9.13;;;12.10;90.70;;;;;;7381675;19;20009;-74
2023/04/26 06:05:11;;;;;;;21.50;10.35;;;12.20;90.70;;;;;;7381686;19;20044;-74
2023/04/26 06:07:43;;;;;;;17.60;9.70;;;12.20;90.80;;;;;;7381053;19;20023;-74
2023/04/26 06:10:12;;;;;;;18.60;9.07;;;12.20;90.80;;;;;;7401268;19;20022;-74
2023/04/26 06:12:41;;;;;;;19.73;9.88;;;12.30;90.80;;;;;;7383209;19;20248;-75
2023/04/26 06:15:11;;;;;;;22.67;10.38;;;12.30;90.90;;;;;;7380772;19;20007;-75
2023/04/26 06:17:43;;;;;;;24.45;9.50;;;12.30;90.60;;;;;;7380966;19;20110;-75
2023/04/26 06:20:14;;;;;;;22.35;10.07;;;12.20;90.00;;;;;;7382243;19;20011;-76
2023/04/26 06:22:50;;;;;;;25.23;9.83;;;12.30;89.50;;;;;;7380417;19;20034;-75
2023/04/26 06:25:43;;;;;;;26.35;9.70;;;12.40;89.20;;;;;;7402886;19;20010;-75
2023/04/26 06:28:14;;;;;;;23.33;8.65;;;12.40;88.60;;;;;;7380312;19;20015;-75
2023/04/26 06:30:50;;;;;;;23.08;9.02;;;12.50;87.70;;;;;;7380526;19;20006;-75
2023/04/26 06:33:25;;;;;;;19.80;8.63;;;12.50;87.60;;;;;;7379217;19;19998;-74
2023/04/26 06:36:01;;;;;;;23.27;8.25;;;12.60;87.10;;;;;;7380498;19;20005;-75
2023/04/26 06:38:50;;;;;;;22.08;8.32;;;12.60;86.90;;;;;;7380909;19;20007;-75
2023/04/26 06:41:23;;;;;;;20.55;8.15;;;12.60;86.70;;;;;;7381071;19;20003;-75
2023/04/26 06:43:55;;;;;;;17.02;8.27;;;12.70;86.20;;;;;;7382027;19;20023;-75
2023/04/26 06:46:28;;;;;;;18.67;8.23;;;12.70;85.90;;;;;;7403488;19;20011;-75
2023/04/26 06:49:08;;;;;;;17.65;8.10;;;12.70;85.60;;;;;;7380113;19;20010;-75
2023/04/26 06:51:37;;;;;;;18.67;8.25;;;12.70;85.60;;;;;;7379353;19;20011;-75
2023/04/26 06:54:21;;;;;;;25.83;9.00;;;12.70;85.50;;;;;;7379366;19;20079;-75
2023/04/26 06:57:11;;;;;;;17.48;7.82;;;12.70;85.40;;;;;;7380739;19;20018;-75
2023/04/26 06:59:47;;;;;;;20.30;7.82;;;12.80;85.30;;;;;;7379184;19;20038;-75
2023/04/26 07:02:15;;;;;;;21.23;8.10;;;12.90;85.00;;;;;;7378338;19;20054;-75
2023/04/26 07:04:53;;;;;;;19.17;8.32;;;13.00;84.80;;;;;;7380012;19;20017;-75
2023/04/26 07:07:27;;;;;;;19.70;7.97;;;13.00;84.40;;;;;;7399903;19;20377;-75
2023/04/26 07:10:03;;;;;;;24.25;7.78;;;13.10;84.00;;;;;;7378775;19;20007;-75
2023/04/26 07:12:37;;;;;;;21.77;7.53;;;13.20;83.50;;;;;;7378717;19;20058;-74
2023/04/26 07:15:13;;;;;;;17.92;7.78;;;13.20;83.10;;;;;;7380520;19;20010;-75
2023/04/26 07:17:44;;;;;;;17.17;8.23;;;13.20;83.10;;;;;;7380282;19;20101;-75
2023/04/26 07:23:14;;;;;;;21.17;7.93;;;13.30;83.30;;;;;;7378181;19;20018;-75
2023/04/26 07:25:52;;;;;;;16.67;7.93;;;13.40;83.10;;;;;;7378386;19;20047;-75
2023/04/26 07:28:26;;;;;;;17.42;7.43;;;13.40;82.80;;;;;;7400365;19;20006;-75
2023/04/26 07:30:56;;;;;;;18.52;7.72;;;13.50;82.20;;;;;;7379730;19;20015;-75
2023/04/26 07:33:25;;;;;;;22.02;7.80;;;13.50;82.50;;;;;;7380248;19;20239;-75
2023/04/26 07:36:04;;;;;;;16.88;7.70;;;13.50;82.30;;;;;;7380739;19;20010;-75
2023/04/26 07:38:54;;;;;;;19.70;8.05;;;13.50;82.70;;;;;;7380177;19;20007;-75
2023/04/26 07:44:34;;;;;;;19.70;6.80;;;13.60;81.60;;;;;;7376522;19;20010;-75
2023/04/26 07:50:09;;;;;;;22.10;7.38;;;13.70;81.40;;;;;;7375832;19;20013;-75
2023/04/26 07:53:05;;;;;;;14.10;7.10;;;13.80;81.40;;;;;;7376617;19;20003;-74
2023/04/26 07:55:40;;;;;;;18.85;7.20;;;13.80;81.60;;;;;;7378130;19;20306;-75
2023/04/26 07:58:13;;;;;;;15.50;6.95;;;13.90;80.80;;;;;;7400376;19;20012;-75
2023/04/26 08:00:42;;;;;;;22.17;7.68;;;13.90;81.20;;;;;;7377325;19;20071;-75
2023/04/26 08:03:12;;;;;;;26.02;7.70;;;14.00;80.80;;;;;;7377987;19;20011;-74
2023/04/26 08:05:41;;;;;;;18.08;6.95;;;14.10;80.10;;;;;;7379089;19;20070;-74
2023/04/26 08:08:11;;;;;;;16.90;7.63;;;14.10;80.00;;;;;;7375912;19;20013;-74
2023/04/26 08:10:42;;;;;;;17.92;7.80;;;14.10;79.70;;;;;;7377981;19;20011;-74
2023/04/26 08:13:14;;;;;;;18.55;6.90;;;14.10;79.80;;;;;;7399041;19;20014;-74
2023/04/26 08:15:43;;;;;;;18.10;8.10;;;14.20;79.80;;;;;;7377371;19;20009;-74
2023/04/26 08:18:12;;;;;;;24.77;9.80;;;14.20;79.90;;;;;;7377264;19;20024;-74
2023/04/26 08:20:40;;;;;;;58.67;23.75;;;14.30;79.70;;;;;;7377522;19;20010;-74
2023/04/26 08:23:09;;;;;;;28.55;11.82;;;14.30;79.40;;;;;;7379051;19;20099;-74
2023/04/26 08:25:38;;;;;;;18.27;7.68;;;14.40;79.90;;;;;;7377711;19;20014;-75
2023/04/26 08:28:07;;;;;;;20.90;7.32;;;14.40;79.30;;;;;;7398240;19;20284;-75
2023/04/26 08:30:38;;;;;;;19.42;7.75;;;14.40;79.30;;;;;;7376769;19;20295;-75
2023/04/26 08:33:08;;;;;;;17.60;7.43;;;14.50;79.50;;;;;;7382264;19;20082;-75
2023/04/26 08:35:37;;;;;;;19.00;7.05;;;14.60;79.60;;;;;;7383016;19;19999;-75
2023/04/26 08:38:06;;;;;;;20.70;7.13;;;14.60;79.30;;;;;;7384840;19;20003;-75
2023/04/26 08:40:35;;;;;;;18.73;6.38;;;14.70;79.10;;;;;;7384333;19;20014;-75
2023/04/26 08:43:03;;;;;;;17.83;7.43;;;14.80;79.20;;;;;;7405557;19;20245;-75
2023/04/26 08:45:35;;;;;;;16.23;6.57;;;14.80;78.80;;;;;;7383737;19;20006;-75
2023/04/26 08:48:10;;;;;;;;;;;14.90;78.20;;;;;;7387072;19;20007;-75
2023/04/26 08:50:41;;;;;;;18.08;6.55;;;15.00;78.20;;;;;;7384883;19;19915;-75
2023/04/26 08:53:10;;;;;;;16.47;7.10;;;15.00;77.90;;;;;;7384090;19;20023;-75
2023/04/26 08:55:40;;;;;;;17.42;6.25;;;15.00;77.80;;;;;;7384068;19;20014;-75
2023/04/26 08:58:09;;;;;;;13.48;6.43;;;15.00;78.00;;;;;;7406363;19;20015;-75
2023/04/26 09:00:38;;;;;;;15.77;6.53;;;15.00;77.80;;;;;;7384194;19;20006;-75
2023/04/26 09:03:09;;;;;;;21.13;7.22;;;14.90;77.50;;;;;;7383316;19;20006;-75
2023/04/26 09:05:38;;;;;;;;;;;15.00;78.50;;;;;;7384377;19;20030;-75
2023/04/26 09:08:09;;;;;;;15.40;6.13;;;15.10;78.00;;;;;;7383876;19;19907;-74
2023/04/26 09:10:38;;;;;;;15.25;6.10;;;15.10;78.30;;;;;;7383241;19;20030;-75
2023/04/26 09:13:06;;;;;;;15.02;5.90;;;15.10;77.90;;;;;;7404800;19;20014;-75
2023/04/26 09:15:35;;;;;;;18.17;6.93;;;15.20;77.60;;;;;;7382716;19;20003;-74
2023/04/26 09:18:22;;;;;;;17.73;6.75;;;15.20;78.00;;;;;;7383104;19;20086;-76
2023/04/26 09:21:05;;;;;;;18.23;6.57;;;15.20;77.70;;;;;;7381488;19;20007;-74
2023/04/26 09:23:35;;;;;;;16.60;6.47;;;15.30;78.00;;;;;;7382994;19;20002;-75
2023/04/26 09:26:21;;;;;;;12.80;6.05;;;15.50;77.70;;;;;;7382749;19;20378;-76
2023/04/26 09:28:51;;;;;;;18.40;6.95;;;15.50;77.20;;;;;;7382762;19;20010;-76
2023/04/26 09:31:39;;;;;;;15.43;6.32;;;15.60;77.00;;;;;;7404769;19;20038;-75
2023/04/26 09:34:12;;;;;;;15.70;6.50;;;15.60;76.40;;;;;;7381895;19;20002;-75
2023/04/26 09:36:55;;;;;;;22.17;6.90;;;15.70;76.70;;;;;;7381690;19;20011;-75
2023/04/26 09:39:34;;;;;;;16.10;6.75;;;15.70;77.40;;;;;;7382101;19;20002;-75
2023/04/26 09:42:03;;;;;;;15.02;6.65;;;15.70;77.40;;;;;;7382539;19;20008;-76
2023/04/26 09:44:32;;;;;;;20.80;7.00;;;15.80;77.70;;;;;;7382640;19;20006;-76
2023/04/26 09:47:04;;;;;;;21.48;6.63;;;15.80;77.10;;;;;;7382490;19;20429;-75
2023/04/26 09:49:45;;;;;;;;;;;15.80;77.80;;;;;;7404679;19;20038;-75
2023/04/26 09:52:14;;;;;;;10.77;5.68;;;15.90;76.80;;;;;;7381523;19;19907;-75
2023/04/26 09:54:45;;;;;;;17.77;6.82;;;15.90;76.80;;;;;;7380008;19;20064;-75
2023/04/26 09:57:15;;;;;;;13.07;5.82;;;15.90;75.90;;;;;;7384462;19;20002;-75
2023/04/26 09:59:48;;;;;;;11.85;5.78;;;15.90;75.30;;;;;;7384063;19;20011;-75
2023/04/26 10:02:22;;;;;;;15.35;5.93;;;15.90;75.20;;;;;;7384556;19;20002;-75
2023/04/26 10:04:55;;;;;;;20.73;6.13;;;15.90;74.40;;;;;;7384860;19;20018;-75
2023/04/26 10:07:27;;;;;;;15.05;6.05;;;16.00;75.40;;;;;;7404283;19;20010;-75
2023/04/26 10:09:56;;;;;;;13.43;5.78;;;16.00;75.40;;;;;;7382434;19;20288;-75
2023/04/26 10:12:25;;;;;;;12.85;6.00;;;16.20;75.60;;;;;;7381546;19;20275;-76
2023/04/26 10:14:54;;;;;;;17.48;6.68;;;16.10;74.60;;;;;;7380500;19;20006;-74
2023/04/26 10:17:23;;;;;;;15.75;6.35;;;16.20;73.60;;;;;;7381120;19;20003;-74
2023/04/26 10:19:59;;;;;;;21.60;6.40;;;16.20;74.10;;;;;;7381321;19;20011;-74
2023/04/26 10:22:32;;;;;;;18.25;6.38;;;16.20;74.10;;;;;;7401167;19;20023;-74
2023/04/26 10:25:01;;;;;;;15.00;5.95;;;16.20;73.80;;;;;;7380608;19;20067;-74
2023/04/26 10:27:57;;;;;;;17.00;6.60;;;16.20;74.50;;;;;;7380487;19;20007;-74
2023/04/26 10:30:25;;;;;;;13.82;6.90;;;16.20;74.60;;;;;;7377452;19;20007;-75
2023/04/26 10:33:15;;;;;;;21.33;6.75;;;16.40;74.20;;;;;;7378358;19;20017;-75
2023/04/26 10:36:09;;;;;;;13.13;6.18;;;16.40;74.30;;;;;;7376650;19;20005;-75
2023/04/26 10:38:39;;;;;;;17.83;6.18;;;16.50;74.20;;;;;;7378571;19;20006;-75
2023/04/26 10:41:30;;;;;;;14.07;6.25;;;16.50;72.90;;;;;;7378894;19;20062;-75
2023/04/26 10:44:01;;;;;;;14.87;6.73;;;16.50;73.30;;;;;;7378623;19;20070;-75
2023/04/26 10:46:41;;;;;;;21.23;6.23;;;16.50;72.30;;;;;;7399112;19;20006;-75
2023/04/26 10:49:21;;;;;;;14.83;5.57;;;16.50;73.50;;;;;;7378038;19;20006;-75
2023/04/26 10:52:15;;;;;;;11.00;5.07;;;16.60;73.10;;;;;;7378254;19;20010;-76
2023/04/26 10:55:09;;;;;;;13.88;4.93;;;16.70;72.70;;;;;;7375768;19;20006;-76
2023/04/26 10:57:52;;;;;;;15.23;6.50;;;16.70;72.60;;;;;;7377940;19;20014;-75
2023/04/26 11:00:29;;;;;;;17.13;5.72;;;16.70;71.80;;;;;;7378372;19;20019;-74
2023/04/26 11:03:00;;;;;;;13.40;5.70;;;16.80;71.80;;;;;;7379348;19;20273;-74
2023/04/26 11:05:36;;;;;;;13.23;5.72;;;16.90;70.30;;;;;;7378272;19;20027;-74
2023/04/26 11:08:18;;;;;;;11.93;5.40;;;16.90;71.00;;;;;;7379633;19;20030;-74
2023/04/26 11:10:52;;;;;;;14.57;5.75;;;16.90;71.00;;;;;;7379011;19;20013;-74
2023/04/26 11:13:21;;;;;;;11.32;5.95;;;16.90;71.00;;;;;;7404846;19;20007;-75
2023/04/26 11:15:55;;;;;;;12.23;6.03;;;16.80;70.80;;;;;;7382515;19;19999;-75
2023/04/26 11:18:23;;;;;;;15.13;6.00;;;16.80;70.80;;;;;;7385108;19;20010;-75
2023/04/26 11:20:52;;;;;;;12.07;5.88;;;16.80;70.70;;;;;;7386362;19;20120;-75
2023/04/26 11:23:25;;;;;;;12.65;6.10;;;16.80;70.50;;;;;;7388622;19;20003;-75
2023/04/26 11:25:54;;;;;;;11.52;5.03;;;16.80;69.80;;;;;;7387914;19;20022;-75
2023/04/26 11:28:23;;;;;;;11.38;5.07;;;16.90;71.60;;;;;;7408458;19;20010;-75
2023/04/26 11:30:52;;;;;;;10.40;4.78;;;16.90;71.00;;;;;;7385150;19;20006;-75
2023/04/26 11:33:23;;;;;;;15.65;5.32;;;16.90;70.90;;;;;;7384899;19;20003;-75
2023/04/26 11:35:52;;;;;;;14.48;5.50;;;16.80;70.90;;;;;;7384921;19;20326;-75
2023/04/26 11:38:27;;;;;;;14.25;5.82;;;16.90;71.60;;;;;;7384621;19;20003;-75
2023/04/26 11:40:58;;;;;;;14.02;5.05;;;16.90;72.00;;;;;;7383920;19;20359;-75
2023/04/26 11:43:35;;;;;;;12.82;5.35;;;17.00;71.10;;;;;;7406330;19;20011;-75
2023/04/26 11:46:05;;;;;;;17.42;5.38;;;17.10;71.00;;;;;;7384269;19;20003;-75
2023/04/26 11:48:35;;;;;;;12.70;5.22;;;17.20;71.40;;;;;;7383614;19;20003;-75
2023/04/26 11:51:06;;;;;;;12.93;5.32;;;17.30;70.90;;;;;;7383430;19;19999;-75
2023/04/26 11:53:41;;;;;;;11.32;5.60;;;17.30;69.90;;;;;;7382511;19;20009;-74
2023/04/26 11:56:17;;;;;;;15.48;5.38;;;17.40;70.00;;;;;;7382207;19;20364;-75
2023/04/26 11:58:47;;;;;;;13.98;5.28;;;17.30;70.00;;;;;;7381711;19;20009;-74
2023/04/26 12:01:23;;;;;;;13.80;5.40;;;17.40;68.40;;;;;;7405947;19;20003;-74
2023/04/26 12:03:52;;;;;;;12.07;5.35;;;17.50;68.60;;;;;;7384799;19;20023;-75
2023/04/26 12:06:21;;;;;;;13.52;4.90;;;17.50;69.40;;;;;;7384777;19;20016;-75
2023/04/26 12:08:57;;;;;;;10.90;4.57;;;17.50;69.80;;;;;;7392619;19;20061;-75
2023/04/26 12:11:26;;;;;;;10.40;4.45;;;17.50;70.00;;;;;;7390902;19;20007;-75
2023/04/26 12:13:55;;;;;;;7.65;4.30;;;17.50;69.40;;;;;;7392361;19;20390;-75
2023/04/26 12:16:24;;;;;;;12.45;4.75;;;17.50;69.00;;;;;;7407678;19;20258;-75
2023/04/26 12:18:53;;;;;;;9.20;4.40;;;17.50;69.10;;;;;;7384624;19;20113;-75
2023/04/26 12:21:23;;;;;;;11.63;4.68;;;17.50;69.30;;;;;;7383803;19;20014;-75
2023/04/26 12:23:52;;;;;;;10.13;4.30;;;17.50;68.70;;;;;;7386764;19;20067;-76
2023/04/26 12:26:23;;;;;;;11.45;4.28;;;17.60;68.80;;;;;;7384807;19;20020;-75
2023/04/26 12:28:52;;;;;;;14.25;4.57;;;17.50;68.40;;;;;;7386047;19;20014;-76
2023/04/26 12:31:20;;;;;;;11.80;4.10;;;17.50;68.60;;;;;;7408113;19;20002;-75
2023/04/26 12:33:49;;;;;;;8.93;4.10;;;17.50;69.40;;;;;;7384283;19;20011;-75
2023/04/26 12:36:18;;;;;;;9.63;4.55;;;17.50;69.10;;;;;;7383361;19;20092;-75
2023/04/26 12:38:46;;;;;;;13.35;4.82;;;17.60;68.70;;;;;;7385882;19;20129;-75
2023/04/26 12:41:16;;;;;;;9.75;4.72;;;17.60;69.20;;;;;;7386044;19;20019;-75
2023/04/26 12:43:47;;;;;;;10.85;4.63;;;17.60;69.80;;;;;;7385397;19;20377;-75
2023/04/26 12:46:15;;;;;;;8.38;4.25;;;17.60;70.00;;;;;;7404182;19;20056;-75
2023/04/26 12:48:44;;;;;;;8.02;4.68;;;17.60;72.70;;;;;;7383678;19;20064;-75
2023/04/26 12:51:13;;;;;;;9.05;4.57;;;17.70;74.90;;;;;;7383305;19;20003;-75
2023/04/26 12:53:42;;;;;;;8.20;4.78;;;17.60;76.60;;;;;;7383713;19;20014;-75
2023/04/26 12:56:10;;;;;;;10.23;4.55;;;17.60;78.10;;;;;;7382273;19;20019;-75
2023/04/26 12:58:41;;;;;;;13.80;4.35;;;17.50;76.30;;;;;;7381265;19;20062;-76
2023/04/26 13:01:14;;;;;;;9.57;4.35;;;17.50;76.80;;;;;;7405178;19;20025;-75
2023/04/26 13:03:44;;;;;;;10.90;4.32;;;17.60;76.20;;;;;;7382611;19;20006;-75
2023/04/26 13:06:12;;;;;;;7.97;4.50;;;17.70;75.50;;;;;;7382781;19;20002;-74
2023/04/26 13:08:41;;;;;;;11.82;4.55;;;17.80;73.60;;;;;;7381604;19;20375;-74